sensor_id;sensor_type;location;lat;lon;timestamp;P1;durP1;ratioP1;P2;durP2;ratioP2
61391;SDS011;47261;52.892;5.738;2023-06-04T00:02:24;12.93;;;3.95;;
61391;SDS011;47261;52.892;5.738;2023-06-04T00:04:50;11.40;;;4.13;;
61391;SDS011;47261;52.892;5.738;2023-06-04T00:07:16;10.53;;;4.10;;
61391;SDS011;47261;52.892;5.738;2023-06-04T00:09:42;9.07;;;3.90;;
61391;SDS011;47261;52.892;5.738;2023-06-04T00:12:07;9.90;;;3.97;;
61391;SDS011;47261;52.892;5.738;2023-06-04T00:14:33;10.33;;;3.90;;
61391;SDS011;47261;52.892;5.738;2023-06-04T00:16:59;10.13;;;3.72;;
61391;SDS011;47261;52.892;5.738;2023-06-04T00:19:24;12.17;;;3.97;;
61391;SDS011;47261;52.892;5.738;2023-06-04T00:21:50;9.48;;;3.85;;
61391;SDS011;47261;52.892;5.738;2023-06-04T00:24:16;9.63;;;4.33;;
61391;SDS011;47261;52.892;5.738;2023-06-04T00:26:42;9.75;;;4.20;;
61391;SDS011;47261;52.892;5.738;2023-06-04T00:29:07;11.70;;;4.10;;
61391;SDS011;47261;52.892;5.738;2023-06-04T00:31:33;15.32;;;4.28;;
61391;SDS011;47261;52.892;5.738;2023-06-04T00:33:58;12.83;;;4.23;;
61391;SDS011;47261;52.892;5.738;2023-06-04T00:36:24;15.23;;;4.53;;
61391;SDS011;47261;52.892;5.738;2023-06-04T00:38:50;13.80;;;5.10;;
61391;SDS011;47261;52.892;5.738;2023-06-04T00:41:15;12.93;;;4.73;;
61391;SDS011;47261;52.892;5.738;2023-06-04T00:43:41;12.75;;;4.72;;
61391;SDS011;47261;52.892;5.738;2023-06-04T00:46:10;14.38;;;4.40;;
61391;SDS011;47261;52.892;5.738;2023-06-04T00:48:43;12.45;;;5.20;;
61391;SDS011;47261;52.892;5.738;2023-06-04T00:51:09;11.43;;;4.13;;
61391;SDS011;47261;52.892;5.738;2023-06-04T00:53:36;11.38;;;3.90;;
61391;SDS011;47261;52.892;5.738;2023-06-04T00:56:02;11.55;;;3.95;;
61391;SDS011;47261;52.892;5.738;2023-06-04T00:58:30;13.85;;;4.43;;
61391;SDS011;47261;52.892;5.738;2023-06-04T01:00:56;13.07;;;4.07;;
61391;SDS011;47261;52.892;5.738;2023-06-04T01:03:29;13.75;;;4.55;;
61391;SDS011;47261;52.892;5.738;2023-06-04T01:06:04;16.30;;;4.55;;
61391;SDS011;47261;52.892;5.738;2023-06-04T01:08:31;11.65;;;4.28;;
61391;SDS011;47261;52.892;5.738;2023-06-04T01:10:57;13.67;;;4.50;;
61391;SDS011;47261;52.892;5.738;2023-06-04T01:13:24;12.07;;;4.22;;
61391;SDS011;47261;52.892;5.738;2023-06-04T01:15:49;12.05;;;4.35;;
61391;SDS011;47261;52.892;5.738;2023-06-04T01:18:16;13.27;;;4.18;;
61391;SDS011;47261;52.892;5.738;2023-06-04T01:20:52;12.93;;;4.47;;
61391;SDS011;47261;52.892;5.738;2023-06-04T01:23:51;14.68;;;4.78;;
61391;SDS011;47261;52.892;5.738;2023-06-04T01:26:24;11.15;;;4.85;;
61391;SDS011;47261;52.892;5.738;2023-06-04T01:28:54;14.45;;;4.28;;
61391;SDS011;47261;52.892;5.738;2023-06-04T01:31:21;13.48;;;4.10;;
61391;SDS011;47261;52.892;5.738;2023-06-04T01:33:55;12.97;;;4.20;;
61391;SDS011;47261;52.892;5.738;2023-06-04T01:36:22;15.15;;;4.68;;
61391;SDS011;47261;52.892;5.738;2023-06-04T01:38:48;14.70;;;4.88;;
61391;SDS011;47261;52.892;5.738;2023-06-04T01:41:14;19.13;;;4.73;;
61391;SDS011;47261;52.892;5.738;2023-06-04T01:43:40;14.40;;;4.47;;
61391;SDS011;47261;52.892;5.738;2023-06-04T01:46:05;14.40;;;4.50;;
61391;SDS011;47261;52.892;5.738;2023-06-04T01:48:31;16.30;;;4.63;;
61391;SDS011;47261;52.892;5.738;2023-06-04T01:50:57;14.30;;;5.07;;
61391;SDS011;47261;52.892;5.738;2023-06-04T01:53:23;16.23;;;4.63;;
61391;SDS011;47261;52.892;5.738;2023-06-04T01:55:48;15.90;;;4.85;;
61391;SDS011;47261;52.892;5.738;2023-06-04T01:58:18;15.13;;;4.73;;
61391;SDS011;47261;52.892;5.738;2023-06-04T02:00:52;16.48;;;4.43;;
61391;SDS011;47261;52.892;5.738;2023-06-04T02:03:19;16.25;;;4.40;;
61391;SDS011;47261;52.892;5.738;2023-06-04T02:05:46;10.25;;;4.13;;
61391;SDS011;47261;52.892;5.738;2023-06-04T02:08:14;14.73;;;4.17;;
61391;SDS011;47261;52.892;5.738;2023-06-04T02:10:44;12.95;;;4.20;;
61391;SDS011;47261;52.892;5.738;2023-06-04T02:13:11;14.25;;;4.38;;
61391;SDS011;47261;52.892;5.738;2023-06-04T02:15:37;15.00;;;4.50;;
61391;SDS011;47261;52.892;5.738;2023-06-04T02:18:16;12.10;;;3.90;;
61391;SDS011;47261;52.892;5.738;2023-06-04T02:20:46;15.38;;;4.43;;
61391;SDS011;47261;52.892;5.738;2023-06-04T02:23:13;13.10;;;4.25;;
61391;SDS011;47261;52.892;5.738;2023-06-04T02:25:40;13.25;;;5.20;;
61391;SDS011;47261;52.892;5.738;2023-06-04T02:28:06;16.30;;;4.80;;
61391;SDS011;47261;52.892;5.738;2023-06-04T02:30:32;15.05;;;4.18;;
61391;SDS011;47261;52.892;5.738;2023-06-04T02:32:57;13.97;;;4.60;;
61391;SDS011;47261;52.892;5.738;2023-06-04T02:35:25;13.73;;;4.90;;
61391;SDS011;47261;52.892;5.738;2023-06-04T02:37:52;18.83;;;4.57;;
61391;SDS011;47261;52.892;5.738;2023-06-04T02:40:18;12.63;;;4.57;;
61391;SDS011;47261;52.892;5.738;2023-06-04T02:42:43;12.48;;;5.00;;
61391;SDS011;47261;52.892;5.738;2023-06-04T02:45:10;16.50;;;4.70;;
61391;SDS011;47261;52.892;5.738;2023-06-04T02:47:36;15.70;;;4.60;;
61391;SDS011;47261;52.892;5.738;2023-06-04T02:50:02;14.80;;;4.30;;
61391;SDS011;47261;52.892;5.738;2023-06-04T02:52:28;13.10;;;4.40;;
61391;SDS011;47261;52.892;5.738;2023-06-04T02:54:55;13.40;;;5.22;;
61391;SDS011;47261;52.892;5.738;2023-06-04T02:57:21;13.60;;;4.20;;
61391;SDS011;47261;52.892;5.738;2023-06-04T02:59:47;8.83;;;3.30;;
61391;SDS011;47261;52.892;5.738;2023-06-04T03:02:12;6.70;;;3.17;;
61391;SDS011;47261;52.892;5.738;2023-06-04T03:04:40;12.07;;;3.70;;
61391;SDS011;47261;52.892;5.738;2023-06-04T03:07:07;9.23;;;3.20;;
61391;SDS011;47261;52.892;5.738;2023-06-04T03:09:36;12.02;;;3.17;;
61391;SDS011;47261;52.892;5.738;2023-06-04T03:12:02;9.80;;;3.05;;
61391;SDS011;47261;52.892;5.738;2023-06-04T03:14:28;9.27;;;3.40;;
61391;SDS011;47261;52.892;5.738;2023-06-04T03:17:01;11.60;;;3.42;;
61391;SDS011;47261;52.892;5.738;2023-06-04T03:19:35;10.97;;;2.80;;
61391;SDS011;47261;52.892;5.738;2023-06-04T03:22:01;7.38;;;3.00;;
61391;SDS011;47261;52.892;5.738;2023-06-04T03:24:30;9.77;;;2.42;;
61391;SDS011;47261;52.892;5.738;2023-06-04T03:27:00;7.57;;;2.15;;
61391;SDS011;47261;52.892;5.738;2023-06-04T03:29:26;7.30;;;3.60;;
61391;SDS011;47261;52.892;5.738;2023-06-04T03:31:52;12.13;;;3.70;;
61391;SDS011;47261;52.892;5.738;2023-06-04T03:34:18;12.50;;;3.42;;
61391;SDS011;47261;52.892;5.738;2023-06-04T03:36:43;11.13;;;3.60;;
61391;SDS011;47261;52.892;5.738;2023-06-04T03:39:09;15.40;;;4.88;;
61391;SDS011;47261;52.892;5.738;2023-06-04T03:41:35;15.23;;;4.90;;
61391;SDS011;47261;52.892;5.738;2023-06-04T03:44:01;12.20;;;4.77;;
61391;SDS011;47261;52.892;5.738;2023-06-04T03:46:27;15.55;;;4.90;;
61391;SDS011;47261;52.892;5.738;2023-06-04T03:48:56;16.95;;;4.65;;
61391;SDS011;47261;52.892;5.738;2023-06-04T03:51:22;16.43;;;5.73;;
61391;SDS011;47261;52.892;5.738;2023-06-04T03:53:48;14.45;;;4.22;;
61391;SDS011;47261;52.892;5.738;2023-06-04T03:56:13;17.80;;;4.33;;
61391;SDS011;47261;52.892;5.738;2023-06-04T03:58:39;16.73;;;4.90;;
61391;SDS011;47261;52.892;5.738;2023-06-04T04:01:05;16.70;;;5.60;;
61391;SDS011;47261;52.892;5.738;2023-06-04T04:03:33;17.42;;;5.72;;
61391;SDS011;47261;52.892;5.738;2023-06-04T04:06:00;18.60;;;5.57;;
61391;SDS011;47261;52.892;5.738;2023-06-04T04:08:25;17.93;;;5.57;;
61391;SDS011;47261;52.892;5.738;2023-06-04T04:10:55;11.05;;;4.50;;
61391;SDS011;47261;52.892;5.738;2023-06-04T04:13:20;18.92;;;5.03;;
61391;SDS011;47261;52.892;5.738;2023-06-04T04:15:46;11.47;;;4.83;;
61391;SDS011;47261;52.892;5.738;2023-06-04T04:18:12;13.03;;;4.80;;
61391;SDS011;47261;52.892;5.738;2023-06-04T04:20:38;13.65;;;4.57;;
61391;SDS011;47261;52.892;5.738;2023-06-04T04:23:04;11.07;;;4.57;;
61391;SDS011;47261;52.892;5.738;2023-06-04T04:25:31;18.43;;;5.93;;
61391;SDS011;47261;52.892;5.738;2023-06-04T04:27:57;16.75;;;5.65;;
61391;SDS011;47261;52.892;5.738;2023-06-04T04:30:25;17.23;;;4.80;;
61391;SDS011;47261;52.892;5.738;2023-06-04T04:32:51;20.40;;;5.50;;
61391;SDS011;47261;52.892;5.738;2023-06-04T04:35:16;14.50;;;5.18;;
61391;SDS011;47261;52.892;5.738;2023-06-04T04:37:43;14.90;;;5.28;;
61391;SDS011;47261;52.892;5.738;2023-06-04T04:40:10;15.87;;;4.27;;
61391;SDS011;47261;52.892;5.738;2023-06-04T04:42:37;16.98;;;5.68;;
61391;SDS011;47261;52.892;5.738;2023-06-04T04:45:03;16.05;;;5.53;;
61391;SDS011;47261;52.892;5.738;2023-06-04T04:47:29;16.17;;;5.25;;
61391;SDS011;47261;52.892;5.738;2023-06-04T04:49:55;15.63;;;5.20;;
61391;SDS011;47261;52.892;5.738;2023-06-04T04:52:20;18.08;;;5.43;;
61391;SDS011;47261;52.892;5.738;2023-06-04T04:54:46;16.73;;;5.30;;
61391;SDS011;47261;52.892;5.738;2023-06-04T04:57:12;20.08;;;5.28;;
61391;SDS011;47261;52.892;5.738;2023-06-04T04:59:37;16.20;;;5.67;;
61391;SDS011;47261;52.892;5.738;2023-06-04T05:02:03;15.63;;;4.95;;
61391;SDS011;47261;52.892;5.738;2023-06-04T05:04:29;24.67;;;5.97;;
61391;SDS011;47261;52.892;5.738;2023-06-04T05:06:54;14.50;;;6.22;;
61391;SDS011;47261;52.892;5.738;2023-06-04T05:09:20;21.37;;;5.73;;
61391;SDS011;47261;52.892;5.738;2023-06-04T05:11:45;17.07;;;6.10;;
61391;SDS011;47261;52.892;5.738;2023-06-04T05:14:11;19.00;;;5.47;;
61391;SDS011;47261;52.892;5.738;2023-06-04T05:16:37;17.97;;;5.57;;
61391;SDS011;47261;52.892;5.738;2023-06-04T05:19:03;15.55;;;5.22;;
61391;SDS011;47261;52.892;5.738;2023-06-04T05:21:29;16.80;;;5.07;;
61391;SDS011;47261;52.892;5.738;2023-06-04T05:23:55;15.70;;;5.63;;
61391;SDS011;47261;52.892;5.738;2023-06-04T05:26:21;16.55;;;4.88;;
61391;SDS011;47261;52.892;5.738;2023-06-04T05:28:48;13.93;;;5.18;;
61391;SDS011;47261;52.892;5.738;2023-06-04T05:31:14;14.55;;;4.38;;
61391;SDS011;47261;52.892;5.738;2023-06-04T05:33:40;12.85;;;4.63;;
61391;SDS011;47261;52.892;5.738;2023-06-04T05:36:06;10.77;;;4.20;;
61391;SDS011;47261;52.892;5.738;2023-06-04T05:38:32;9.52;;;3.70;;
61391;SDS011;47261;52.892;5.738;2023-06-04T05:40:58;9.93;;;4.27;;
61391;SDS011;47261;52.892;5.738;2023-06-04T05:43:24;21.83;;;5.57;;
61391;SDS011;47261;52.892;5.738;2023-06-04T05:45:49;9.37;;;4.03;;
61391;SDS011;47261;52.892;5.738;2023-06-04T05:48:16;13.05;;;4.82;;
61391;SDS011;47261;52.892;5.738;2023-06-04T05:50:42;12.88;;;6.38;;
61391;SDS011;47261;52.892;5.738;2023-06-04T05:53:07;14.00;;;5.77;;
61391;SDS011;47261;52.892;5.738;2023-06-04T05:55:33;12.93;;;4.75;;
61391;SDS011;47261;52.892;5.738;2023-06-04T05:57:59;9.57;;;3.23;;
61391;SDS011;47261;52.892;5.738;2023-06-04T06:00:25;8.50;;;3.13;;
61391;SDS011;47261;52.892;5.738;2023-06-04T06:02:50;12.43;;;3.37;;
61391;SDS011;47261;52.892;5.738;2023-06-04T06:05:17;12.60;;;3.13;;
61391;SDS011;47261;52.892;5.738;2023-06-04T06:07:44;10.73;;;3.25;;
61391;SDS011;47261;52.892;5.738;2023-06-04T06:10:10;13.25;;;3.35;;
61391;SDS011;47261;52.892;5.738;2023-06-04T06:12:36;12.67;;;2.80;;
61391;SDS011;47261;52.892;5.738;2023-06-04T06:15:02;9.38;;;3.22;;
61391;SDS011;47261;52.892;5.738;2023-06-04T06:17:28;13.80;;;3.70;;
61391;SDS011;47261;52.892;5.738;2023-06-04T06:19:54;9.17;;;3.30;;
61391;SDS011;47261;52.892;5.738;2023-06-04T06:22:21;10.07;;;3.45;;
61391;SDS011;47261;52.892;5.738;2023-06-04T06:24:47;8.52;;;3.30;;
61391;SDS011;47261;52.892;5.738;2023-06-04T06:27:13;12.82;;;3.85;;
61391;SDS011;47261;52.892;5.738;2023-06-04T06:29:41;11.65;;;3.95;;
61391;SDS011;47261;52.892;5.738;2023-06-04T06:32:07;11.33;;;4.00;;
61391;SDS011;47261;52.892;5.738;2023-06-04T06:34:33;10.25;;;3.80;;
61391;SDS011;47261;52.892;5.738;2023-06-04T06:36:59;12.10;;;4.38;;
61391;SDS011;47261;52.892;5.738;2023-06-04T06:39:24;11.23;;;4.10;;
61391;SDS011;47261;52.892;5.738;2023-06-04T06:41:50;9.37;;;4.40;;
61391;SDS011;47261;52.892;5.738;2023-06-04T06:44:15;11.40;;;4.82;;
61391;SDS011;47261;52.892;5.738;2023-06-04T06:46:41;14.87;;;5.90;;
61391;SDS011;47261;52.892;5.738;2023-06-04T06:49:07;14.30;;;6.43;;
61391;SDS011;47261;52.892;5.738;2023-06-04T06:51:33;15.50;;;6.07;;
61391;SDS011;47261;52.892;5.738;2023-06-04T06:53:58;15.17;;;5.97;;
61391;SDS011;47261;52.892;5.738;2023-06-04T06:56:24;11.70;;;5.67;;
61391;SDS011;47261;52.892;5.738;2023-06-04T06:58:51;14.85;;;6.28;;
61391;SDS011;47261;52.892;5.738;2023-06-04T07:01:16;14.32;;;6.03;;
61391;SDS011;47261;52.892;5.738;2023-06-04T07:03:42;13.43;;;6.10;;
61391;SDS011;47261;52.892;5.738;2023-06-04T07:06:08;13.88;;;5.75;;
61391;SDS011;47261;52.892;5.738;2023-06-04T07:08:33;13.17;;;5.23;;
61391;SDS011;47261;52.892;5.738;2023-06-04T07:11:00;14.93;;;5.80;;
61391;SDS011;47261;52.892;5.738;2023-06-04T07:13:27;12.57;;;4.95;;
61391;SDS011;47261;52.892;5.738;2023-06-04T07:15:53;10.37;;;4.80;;
61391;SDS011;47261;52.892;5.738;2023-06-04T07:18:19;12.32;;;4.85;;
61391;SDS011;47261;52.892;5.738;2023-06-04T07:20:44;13.67;;;4.53;;
61391;SDS011;47261;52.892;5.738;2023-06-04T07:23:10;12.35;;;3.85;;
61391;SDS011;47261;52.892;5.738;2023-06-04T07:25:36;9.55;;;2.67;;
61391;SDS011;47261;52.892;5.738;2023-06-04T07:28:01;10.93;;;3.27;;
61391;SDS011;47261;52.892;5.738;2023-06-04T07:30:29;11.23;;;2.90;;
61391;SDS011;47261;52.892;5.738;2023-06-04T07:32:58;8.90;;;2.38;;
61391;SDS011;47261;52.892;5.738;2023-06-04T07:35:24;16.20;;;3.03;;
61391;SDS011;47261;52.892;5.738;2023-06-04T07:37:50;9.40;;;2.67;;
61391;SDS011;47261;52.892;5.738;2023-06-04T07:40:16;11.30;;;2.80;;
61391;SDS011;47261;52.892;5.738;2023-06-04T07:42:42;11.20;;;3.08;;
61391;SDS011;47261;52.892;5.738;2023-06-04T07:45:08;10.40;;;3.00;;
61391;SDS011;47261;52.892;5.738;2023-06-04T07:47:38;9.45;;;2.20;;
61391;SDS011;47261;52.892;5.738;2023-06-04T07:50:04;6.93;;;2.03;;
61391;SDS011;47261;52.892;5.738;2023-06-04T07:52:31;9.87;;;2.13;;
61391;SDS011;47261;52.892;5.738;2023-06-04T07:54:57;9.80;;;2.13;;
61391;SDS011;47261;52.892;5.738;2023-06-04T07:57:23;8.38;;;1.80;;
61391;SDS011;47261;52.892;5.738;2023-06-04T07:59:49;14.93;;;2.73;;
61391;SDS011;47261;52.892;5.738;2023-06-04T08:02:15;8.63;;;2.00;;
61391;SDS011;47261;52.892;5.738;2023-06-04T08:04:40;9.38;;;2.10;;
61391;SDS011;47261;52.892;5.738;2023-06-04T08:07:06;11.75;;;2.25;;
61391;SDS011;47261;52.892;5.738;2023-06-04T08:09:32;9.80;;;2.10;;
61391;SDS011;47261;52.892;5.738;2023-06-04T08:11:57;7.93;;;1.80;;
61391;SDS011;47261;52.892;5.738;2023-06-04T08:14:23;9.30;;;1.98;;
61391;SDS011;47261;52.892;5.738;2023-06-04T08:16:52;8.25;;;1.85;;
61391;SDS011;47261;52.892;5.738;2023-06-04T08:19:18;7.03;;;1.63;;
61391;SDS011;47261;52.892;5.738;2023-06-04T08:21:44;10.17;;;2.20;;
61391;SDS011;47261;52.892;5.738;2023-06-04T08:24:10;9.80;;;1.98;;
61391;SDS011;47261;52.892;5.738;2023-06-04T08:26:36;8.77;;;2.17;;
61391;SDS011;47261;52.892;5.738;2023-06-04T08:29:02;9.10;;;2.10;;
61391;SDS011;47261;52.892;5.738;2023-06-04T08:31:31;9.93;;;1.83;;
61391;SDS011;47261;52.892;5.738;2023-06-04T08:33:57;7.65;;;1.50;;
61391;SDS011;47261;52.892;5.738;2023-06-04T08:36:23;6.85;;;1.58;;
61391;SDS011;47261;52.892;5.738;2023-06-04T08:38:49;8.57;;;1.45;;
61391;SDS011;47261;52.892;5.738;2023-06-04T08:44:09;7.55;;;1.63;;
61391;SDS011;47261;52.892;5.738;2023-06-04T08:46:37;6.68;;;1.55;;
61391;SDS011;47261;52.892;5.738;2023-06-04T08:49:05;8.50;;;1.60;;
61391;SDS011;47261;52.892;5.738;2023-06-04T08:51:32;4.65;;;1.15;;
61391;SDS011;47261;52.892;5.738;2023-06-04T08:54:00;9.53;;;2.30;;
61391;SDS011;47261;52.892;5.738;2023-06-04T08:56:26;7.68;;;1.50;;
61391;SDS011;47261;52.892;5.738;2023-06-04T08:58:58;7.88;;;1.70;;
61391;SDS011;47261;52.892;5.738;2023-06-04T09:01:26;10.40;;;1.58;;
61391;SDS011;47261;52.892;5.738;2023-06-04T09:03:53;8.07;;;1.60;;
61391;SDS011;47261;52.892;5.738;2023-06-04T09:06:19;4.97;;;1.37;;
61391;SDS011;47261;52.892;5.738;2023-06-04T09:08:45;7.03;;;1.52;;
61391;SDS011;47261;52.892;5.738;2023-06-04T09:11:11;5.93;;;1.30;;
61391;SDS011;47261;52.892;5.738;2023-06-04T09:13:39;9.50;;;1.70;;
61391;SDS011;47261;52.892;5.738;2023-06-04T09:16:07;5.47;;;1.13;;
61391;SDS011;47261;52.892;5.738;2023-06-04T09:18:33;5.87;;;2.30;;
61391;SDS011;47261;52.892;5.738;2023-06-04T09:21:05;6.97;;;1.20;;
61391;SDS011;47261;52.892;5.738;2023-06-04T09:23:50;5.30;;;1.40;;
61391;SDS011;47261;52.892;5.738;2023-06-04T09:26:16;6.65;;;1.60;;
61391;SDS011;47261;52.892;5.738;2023-06-04T09:28:45;4.60;;;1.27;;
61391;SDS011;47261;52.892;5.738;2023-06-04T09:31:14;4.07;;;1.15;;
61391;SDS011;47261;52.892;5.738;2023-06-04T09:33:44;6.80;;;0.98;;
61391;SDS011;47261;52.892;5.738;2023-06-04T09:36:11;8.65;;;1.20;;
61391;SDS011;47261;52.892;5.738;2023-06-04T09:38:37;4.78;;;1.40;;
61391;SDS011;47261;52.892;5.738;2023-06-04T09:41:03;5.70;;;1.30;;
61391;SDS011;47261;52.892;5.738;2023-06-04T09:43:32;3.80;;;1.20;;
61391;SDS011;47261;52.892;5.738;2023-06-04T09:48:36;5.32;;;1.60;;
61391;SDS011;47261;52.892;5.738;2023-06-04T09:51:09;7.05;;;1.58;;
61391;SDS011;47261;52.892;5.738;2023-06-04T09:53:35;6.50;;;1.40;;
61391;SDS011;47261;52.892;5.738;2023-06-04T09:56:02;8.38;;;1.75;;
61391;SDS011;47261;52.892;5.738;2023-06-04T09:58:31;6.45;;;1.10;;
61391;SDS011;47261;52.892;5.738;2023-06-04T10:00:58;5.88;;;1.48;;
61391;SDS011;47261;52.892;5.738;2023-06-04T10:03:26;4.53;;;1.20;;
61391;SDS011;47261;52.892;5.738;2023-06-04T10:05:59;4.33;;;1.10;;
61391;SDS011;47261;52.892;5.738;2023-06-04T10:08:27;4.95;;;1.45;;
61391;SDS011;47261;52.892;5.738;2023-06-04T10:10:56;5.15;;;1.58;;
61391;SDS011;47261;52.892;5.738;2023-06-04T10:13:27;7.15;;;1.10;;
61391;SDS011;47261;52.892;5.738;2023-06-04T10:16:13;5.30;;;1.65;;
61391;SDS011;47261;52.892;5.738;2023-06-04T10:18:39;5.50;;;1.20;;
61391;SDS011;47261;52.892;5.738;2023-06-04T10:21:05;7.30;;;1.58;;
61391;SDS011;47261;52.892;5.738;2023-06-04T10:23:34;5.97;;;1.50;;
61391;SDS011;47261;52.892;5.738;2023-06-04T10:26:01;4.43;;;1.10;;
61391;SDS011;47261;52.892;5.738;2023-06-04T10:28:27;4.57;;;1.40;;
61391;SDS011;47261;52.892;5.738;2023-06-04T10:30:53;5.30;;;1.30;;
61391;SDS011;47261;52.892;5.738;2023-06-04T10:33:21;5.55;;;1.17;;
61391;SDS011;47261;52.892;5.738;2023-06-04T10:35:49;4.47;;;1.10;;
61391;SDS011;47261;52.892;5.738;2023-06-04T10:38:20;4.43;;;1.27;;
61391;SDS011;47261;52.892;5.738;2023-06-04T10:40:47;6.63;;;1.27;;
61391;SDS011;47261;52.892;5.738;2023-06-04T10:43:13;4.63;;;1.52;;
61391;SDS011;47261;52.892;5.738;2023-06-04T10:45:41;4.82;;;1.40;;
61391;SDS011;47261;52.892;5.738;2023-06-04T10:48:08;4.17;;;1.33;;
61391;SDS011;47261;52.892;5.738;2023-06-04T10:50:35;6.60;;;1.48;;
61391;SDS011;47261;52.892;5.738;2023-06-04T10:53:12;4.28;;;1.30;;
61391;SDS011;47261;52.892;5.738;2023-06-04T10:55:47;4.77;;;1.40;;
61391;SDS011;47261;52.892;5.738;2023-06-04T10:58:13;7.75;;;1.73;;
61391;SDS011;47261;52.892;5.738;2023-06-04T11:00:42;5.40;;;1.45;;
61391;SDS011;47261;52.892;5.738;2023-06-04T11:03:12;6.38;;;1.38;;
61391;SDS011;47261;52.892;5.738;2023-06-04T11:08:04;5.20;;;1.60;;
61391;SDS011;47261;52.892;5.738;2023-06-04T11:10:34;8.25;;;1.52;;
61391;SDS011;47261;52.892;5.738;2023-06-04T11:13:02;4.97;;;1.50;;
61391;SDS011;47261;52.892;5.738;2023-06-04T11:18:04;5.53;;;1.40;;
61391;SDS011;47261;52.892;5.738;2023-06-04T11:20:30;5.97;;;1.10;;
61391;SDS011;47261;52.892;5.738;2023-06-04T11:22:56;6.23;;;1.50;;
61391;SDS011;47261;52.892;5.738;2023-06-04T11:25:28;5.25;;;1.30;;
61391;SDS011;47261;52.892;5.738;2023-06-04T11:27:55;5.72;;;1.23;;
61391;SDS011;47261;52.892;5.738;2023-06-04T11:30:22;8.20;;;1.52;;
61391;SDS011;47261;52.892;5.738;2023-06-04T11:32:48;3.73;;;1.20;;
61391;SDS011;47261;52.892;5.738;2023-06-04T11:35:14;6.00;;;1.60;;
61391;SDS011;47261;52.892;5.738;2023-06-04T11:37:40;6.07;;;1.50;;
61391;SDS011;47261;52.892;5.738;2023-06-04T11:40:16;10.93;;;1.60;;
61391;SDS011;47261;52.892;5.738;2023-06-04T11:42:45;5.32;;;1.30;;
61391;SDS011;47261;52.892;5.738;2023-06-04T11:45:13;5.35;;;1.40;;
61391;SDS011;47261;52.892;5.738;2023-06-04T11:47:41;5.95;;;1.70;;
61391;SDS011;47261;52.892;5.738;2023-06-04T11:50:10;4.78;;;1.40;;
61391;SDS011;47261;52.892;5.738;2023-06-04T11:52:37;5.47;;;1.37;;
61391;SDS011;47261;52.892;5.738;2023-06-04T11:55:03;9.82;;;1.48;;
61391;SDS011;47261;52.892;5.738;2023-06-04T11:57:30;7.10;;;1.85;;
61391;SDS011;47261;52.892;5.738;2023-06-04T11:59:56;5.57;;;1.57;;
61391;SDS011;47261;52.892;5.738;2023-06-04T12:02:22;4.85;;;1.33;;
61391;SDS011;47261;52.892;5.738;2023-06-04T12:04:48;5.75;;;1.55;;
61391;SDS011;47261;52.892;5.738;2023-06-04T12:07:19;10.60;;;2.13;;
61391;SDS011;47261;52.892;5.738;2023-06-04T12:09:46;4.55;;;1.52;;
61391;SDS011;47261;52.892;5.738;2023-06-04T12:12:12;6.93;;;1.40;;
61391;SDS011;47261;52.892;5.738;2023-06-04T12:14:37;5.67;;;1.53;;
61391;SDS011;47261;52.892;5.738;2023-06-04T12:17:09;7.13;;;1.50;;
61391;SDS011;47261;52.892;5.738;2023-06-04T12:19:48;4.72;;;1.40;;
61391;SDS011;47261;52.892;5.738;2023-06-04T12:22:15;3.47;;;1.27;;
61391;SDS011;47261;52.892;5.738;2023-06-04T12:24:51;6.53;;;1.63;;
61391;SDS011;47261;52.892;5.738;2023-06-04T12:27:25;4.50;;;1.30;;
61391;SDS011;47261;52.892;5.738;2023-06-04T12:29:58;6.45;;;1.75;;
61391;SDS011;47261;52.892;5.738;2023-06-04T12:32:25;5.97;;;1.50;;
61391;SDS011;47261;52.892;5.738;2023-06-04T12:34:51;6.35;;;1.40;;
61391;SDS011;47261;52.892;5.738;2023-06-04T12:37:17;7.97;;;1.50;;
61391;SDS011;47261;52.892;5.738;2023-06-04T12:39:43;3.15;;;0.93;;
61391;SDS011;47261;52.892;5.738;2023-06-04T12:42:09;6.20;;;1.30;;
61391;SDS011;47261;52.892;5.738;2023-06-04T12:44:35;4.43;;;1.70;;
61391;SDS011;47261;52.892;5.738;2023-06-04T12:47:01;6.30;;;1.40;;
61391;SDS011;47261;52.892;5.738;2023-06-04T12:49:30;5.32;;;1.48;;
61391;SDS011;47261;52.892;5.738;2023-06-04T12:51:56;4.67;;;1.20;;
61391;SDS011;47261;52.892;5.738;2023-06-04T12:54:22;6.40;;;1.20;;
61391;SDS011;47261;52.892;5.738;2023-06-04T12:56:48;4.20;;;1.30;;
61391;SDS011;47261;52.892;5.738;2023-06-04T12:59:14;6.30;;;1.30;;
61391;SDS011;47261;52.892;5.738;2023-06-04T13:01:40;5.30;;;1.20;;
61391;SDS011;47261;52.892;5.738;2023-06-04T13:04:05;5.73;;;1.60;;
61391;SDS011;47261;52.892;5.738;2023-06-04T13:06:31;6.35;;;1.60;;
61391;SDS011;47261;52.892;5.738;2023-06-04T13:08:59;5.47;;;1.27;;
61391;SDS011;47261;52.892;5.738;2023-06-04T13:11:24;5.13;;;1.50;;
61391;SDS011;47261;52.892;5.738;2023-06-04T13:13:50;6.50;;;1.57;;
61391;SDS011;47261;52.892;5.738;2023-06-04T13:16:15;4.70;;;1.60;;
61391;SDS011;47261;52.892;5.738;2023-06-04T13:18:41;4.47;;;1.30;;
61391;SDS011;47261;52.892;5.738;2023-06-04T13:21:07;6.43;;;1.88;;
61391;SDS011;47261;52.892;5.738;2023-06-04T13:23:32;3.87;;;1.30;;
61391;SDS011;47261;52.892;5.738;2023-06-04T13:25:58;4.20;;;1.42;;
61391;SDS011;47261;52.892;5.738;2023-06-04T13:28:25;9.03;;;1.80;;
61391;SDS011;47261;52.892;5.738;2023-06-04T13:30:51;7.72;;;1.50;;
61391;SDS011;47261;52.892;5.738;2023-06-04T13:33:16;4.97;;;1.20;;
61391;SDS011;47261;52.892;5.738;2023-06-04T13:35:44;5.10;;;1.35;;
61391;SDS011;47261;52.892;5.738;2023-06-04T13:38:10;7.63;;;1.48;;
61391;SDS011;47261;52.892;5.738;2023-06-04T13:40:37;5.05;;;1.48;;
61391;SDS011;47261;52.892;5.738;2023-06-04T13:43:04;9.33;;;1.63;;
61391;SDS011;47261;52.892;5.738;2023-06-04T13:45:31;5.30;;;1.60;;
61391;SDS011;47261;52.892;5.738;2023-06-04T13:47:57;6.95;;;1.40;;
61391;SDS011;47261;52.892;5.738;2023-06-04T13:50:27;4.80;;;1.20;;
61391;SDS011;47261;52.892;5.738;2023-06-04T13:52:53;6.93;;;1.30;;
61391;SDS011;47261;52.892;5.738;2023-06-04T13:55:19;5.93;;;1.40;;
61391;SDS011;47261;52.892;5.738;2023-06-04T13:57:44;5.60;;;1.60;;
61391;SDS011;47261;52.892;5.738;2023-06-04T14:00:10;3.72;;;1.40;;
61391;SDS011;47261;52.892;5.738;2023-06-04T14:02:38;7.07;;;1.40;;
61391;SDS011;47261;52.892;5.738;2023-06-04T14:05:04;5.78;;;1.02;;
61391;SDS011;47261;52.892;5.738;2023-06-04T14:07:30;8.98;;;1.40;;
61391;SDS011;47261;52.892;5.738;2023-06-04T14:09:56;3.57;;;1.13;;
61391;SDS011;47261;52.892;5.738;2023-06-04T14:12:22;5.28;;;1.20;;
61391;SDS011;47261;52.892;5.738;2023-06-04T14:14:48;3.92;;;1.10;;
61391;SDS011;47261;52.892;5.738;2023-06-04T14:17:14;6.40;;;1.10;;
61391;SDS011;47261;52.892;5.738;2023-06-04T14:19:40;6.20;;;1.42;;
61391;SDS011;47261;52.892;5.738;2023-06-04T14:22:06;5.13;;;1.30;;
61391;SDS011;47261;52.892;5.738;2023-06-04T14:24:32;5.63;;;1.63;;
61391;SDS011;47261;52.892;5.738;2023-06-04T14:26:58;3.22;;;0.90;;
61391;SDS011;47261;52.892;5.738;2023-06-04T14:29:23;3.83;;;1.00;;
61391;SDS011;47261;52.892;5.738;2023-06-04T14:31:49;3.73;;;1.30;;
61391;SDS011;47261;52.892;5.738;2023-06-04T14:34:15;3.15;;;1.10;;
61391;SDS011;47261;52.892;5.738;2023-06-04T14:36:40;6.33;;;1.20;;
61391;SDS011;47261;52.892;5.738;2023-06-04T14:39:06;4.87;;;1.40;;
61391;SDS011;47261;52.892;5.738;2023-06-04T14:41:32;3.85;;;0.90;;
61391;SDS011;47261;52.892;5.738;2023-06-04T14:43:58;4.03;;;1.25;;
61391;SDS011;47261;52.892;5.738;2023-06-04T14:46:23;3.57;;;1.13;;
61391;SDS011;47261;52.892;5.738;2023-06-04T14:48:50;2.33;;;0.70;;
61391;SDS011;47261;52.892;5.738;2023-06-04T14:51:16;4.18;;;1.38;;